sensor_id;sensor_type;location;lat;lon;timestamp;temperature;humidity
67147;DHT22;70072;52.036;5.558;2024-01-15T00:01:34;16.80;63.80
67147;DHT22;70072;52.036;5.558;2024-01-15T00:04:00;16.80;63.80
67147;DHT22;70072;52.036;5.558;2024-01-15T00:06:26;16.80;63.70
67147;DHT22;70072;52.036;5.558;2024-01-15T00:08:53;16.80;63.70
67147;DHT22;70072;52.036;5.558;2024-01-15T00:11:19;16.80;63.70
67147;DHT22;70072;52.036;5.558;2024-01-15T00:13:47;16.80;63.70
67147;DHT22;70072;52.036;5.558;2024-01-15T00:16:13;16.80;63.70
67147;DHT22;70072;52.036;5.558;2024-01-15T00:18:40;16.80;63.70
67147;DHT22;70072;52.036;5.558;2024-01-15T00:21:05;16.80;63.70
67147;DHT22;70072;52.036;5.558;2024-01-15T00:23:31;16.80;63.70
67147;DHT22;70072;52.036;5.558;2024-01-15T00:25:57;16.80;63.70
67147;DHT22;70072;52.036;5.558;2024-01-15T00:28:25;16.80;63.70
67147;DHT22;70072;52.036;5.558;2024-01-15T00:30:53;16.80;63.70
67147;DHT22;70072;52.036;5.558;2024-01-15T00:33:18;16.80;63.70
67147;DHT22;70072;52.036;5.558;2024-01-15T00:35:44;16.80;63.70
67147;DHT22;70072;52.036;5.558;2024-01-15T00:38:10;16.80;63.70
67147;DHT22;70072;52.036;5.558;2024-01-15T00:40:35;16.80;63.70
67147;DHT22;70072;52.036;5.558;2024-01-15T00:43:03;16.80;63.70
67147;DHT22;70072;52.036;5.558;2024-01-15T00:45:29;16.80;63.70
67147;DHT22;70072;52.036;5.558;2024-01-15T00:47:57;16.80;63.70
67147;DHT22;70072;52.036;5.558;2024-01-15T00:50:24;16.80;63.70
67147;DHT22;70072;52.036;5.558;2024-01-15T00:52:53;16.80;63.70
67147;DHT22;70072;52.036;5.558;2024-01-15T00:55:22;16.80;63.70
67147;DHT22;70072;52.036;5.558;2024-01-15T00:57:47;16.80;63.70
67147;DHT22;70072;52.036;5.558;2024-01-15T01:00:13;16.80;63.70
67147;DHT22;70072;52.036;5.558;2024-01-15T01:02:39;16.80;63.60
67147;DHT22;70072;52.036;5.558;2024-01-15T01:05:05;16.80;63.60
67147;DHT22;70072;52.036;5.558;2024-01-15T01:07:30;16.80;63.70
67147;DHT22;70072;52.036;5.558;2024-01-15T01:09:56;16.80;63.60
67147;DHT22;70072;52.036;5.558;2024-01-15T01:12:22;16.80;63.60
67147;DHT22;70072;52.036;5.558;2024-01-15T01:14:49;16.80;63.60
67147;DHT22;70072;52.036;5.558;2024-01-15T01:17:15;16.80;63.60
67147;DHT22;70072;52.036;5.558;2024-01-15T01:19:43;16.80;63.60
67147;DHT22;70072;52.036;5.558;2024-01-15T01:22:10;16.80;63.60
67147;DHT22;70072;52.036;5.558;2024-01-15T01:24:35;16.70;63.50
67147;DHT22;70072;52.036;5.558;2024-01-15T01:27:01;16.80;63.60
67147;DHT22;70072;52.036;5.558;2024-01-15T01:29:29;16.80;63.60
67147;DHT22;70072;52.036;5.558;2024-01-15T01:31:54;16.80;63.60
67147;DHT22;70072;52.036;5.558;2024-01-15T01:34:24;16.70;63.50
67147;DHT22;70072;52.036;5.558;2024-01-15T01:36:52;16.70;63.50
67147;DHT22;70072;52.036;5.558;2024-01-15T01:39:18;16.70;63.50
67147;DHT22;70072;52.036;5.558;2024-01-15T01:41:43;16.80;64.20
67147;DHT22;70072;52.036;5.558;2024-01-15T01:44:12;16.70;63.50
67147;DHT22;70072;52.036;5.558;2024-01-15T01:46:38;16.80;63.50
67147;DHT22;70072;52.036;5.558;2024-01-15T01:49:09;16.80;63.50
67147;DHT22;70072;52.036;5.558;2024-01-15T01:51:35;16.70;63.50
67147;DHT22;70072;52.036;5.558;2024-01-15T01:54:03;16.70;63.50
67147;DHT22;70072;52.036;5.558;2024-01-15T01:56:29;16.70;63.50
67147;DHT22;70072;52.036;5.558;2024-01-15T01:58:58;16.80;63.50
67147;DHT22;70072;52.036;5.558;2024-01-15T02:01:24;16.70;63.50
67147;DHT22;70072;52.036;5.558;2024-01-15T02:03:49;16.70;63.50
67147;DHT22;70072;52.036;5.558;2024-01-15T02:06:15;16.70;63.50
67147;DHT22;70072;52.036;5.558;2024-01-15T02:08:43;16.70;63.50
67147;DHT22;70072;52.036;5.558;2024-01-15T02:11:11;16.70;63.40
67147;DHT22;70072;52.036;5.558;2024-01-15T02:13:41;16.70;63.40
67147;DHT22;70072;52.036;5.558;2024-01-15T02:16:07;16.70;63.40
67147;DHT22;70072;52.036;5.558;2024-01-15T02:18:43;16.70;63.50
67147;DHT22;70072;52.036;5.558;2024-01-15T02:21:09;16.70;63.50
67147;DHT22;70072;52.036;5.558;2024-01-15T02:23:36;16.70;63.40
67147;DHT22;70072;52.036;5.558;2024-01-15T02:26:07;16.70;63.40
67147;DHT22;70072;52.036;5.558;2024-01-15T02:28:33;16.70;63.40
67147;DHT22;70072;52.036;5.558;2024-01-15T02:31:00;16.70;63.40
67147;DHT22;70072;52.036;5.558;2024-01-15T02:33:26;16.70;63.40
67147;DHT22;70072;52.036;5.558;2024-01-15T02:35:54;16.70;63.40
67147;DHT22;70072;52.036;5.558;2024-01-15T02:38:19;16.70;63.40
67147;DHT22;70072;52.036;5.558;2024-01-15T02:40:45;16.70;63.40
67147;DHT22;70072;52.036;5.558;2024-01-15T02:43:11;16.70;64.00
67147;DHT22;70072;52.036;5.558;2024-01-15T02:45:37;16.70;63.30
67147;DHT22;70072;52.036;5.558;2024-01-15T02:48:03;16.70;63.30
67147;DHT22;70072;52.036;5.558;2024-01-15T02:50:29;16.70;63.30
67147;DHT22;70072;52.036;5.558;2024-01-15T02:52:57;16.70;63.30
67147;DHT22;70072;52.036;5.558;2024-01-15T02:55:22;16.70;63.30
67147;DHT22;70072;52.036;5.558;2024-01-15T02:57:48;16.70;63.30
67147;DHT22;70072;52.036;5.558;2024-01-15T03:00:15;16.70;63.30
67147;DHT22;70072;52.036;5.558;2024-01-15T03:02:43;16.70;63.30
67147;DHT22;70072;52.036;5.558;2024-01-15T03:05:12;16.70;63.30
67147;DHT22;70072;52.036;5.558;2024-01-15T03:07:40;16.70;63.30
67147;DHT22;70072;52.036;5.558;2024-01-15T03:10:06;16.70;63.20
67147;DHT22;70072;52.036;5.558;2024-01-15T03:12:32;16.70;63.20
67147;DHT22;70072;52.036;5.558;2024-01-15T03:14:58;16.70;63.20
67147;DHT22;70072;52.036;5.558;2024-01-15T03:17:25;16.70;63.30
67147;DHT22;70072;52.036;5.558;2024-01-15T03:19:51;16.70;63.30
67147;DHT22;70072;52.036;5.558;2024-01-15T03:22:17;16.70;63.20
67147;DHT22;70072;52.036;5.558;2024-01-15T03:24:45;16.70;63.20
67147;DHT22;70072;52.036;5.558;2024-01-15T03:27:10;16.70;63.20
67147;DHT22;70072;52.036;5.558;2024-01-15T03:29:36;16.70;63.20
67147;DHT22;70072;52.036;5.558;2024-01-15T03:32:02;16.70;63.20
67147;DHT22;70072;52.036;5.558;2024-01-15T03:34:30;16.70;63.20
67147;DHT22;70072;52.036;5.558;2024-01-15T03:36:55;16.70;63.20
67147;DHT22;70072;52.036;5.558;2024-01-15T03:39:21;16.70;63.20
67147;DHT22;70072;52.036;5.558;2024-01-15T03:41:47;16.70;63.20
67147;DHT22;70072;52.036;5.558;2024-01-15T03:44:12;16.70;63.20
67147;DHT22;70072;52.036;5.558;2024-01-15T03:46:38;16.70;63.20
67147;DHT22;70072;52.036;5.558;2024-01-15T03:49:04;16.70;63.20
67147;DHT22;70072;52.036;5.558;2024-01-15T03:51:32;16.70;63.20
67147;DHT22;70072;52.036;5.558;2024-01-15T03:53:58;16.70;63.80
67147;DHT22;70072;52.036;5.558;2024-01-15T03:56:23;16.70;63.20
67147;DHT22;70072;52.036;5.558;2024-01-15T03:58:50;16.70;63.20
67147;DHT22;70072;52.036;5.558;2024-01-15T04:01:16;16.70;63.10
67147;DHT22;70072;52.036;5.558;2024-01-15T04:03:42;16.70;63.10
67147;DHT22;70072;52.036;5.558;2024-01-15T04:06:08;16.70;63.10
67147;DHT22;70072;52.036;5.558;2024-01-15T04:08:34;16.70;63.20
67147;DHT22;70072;52.036;5.558;2024-01-15T04:11:01;16.70;63.10
67147;DHT22;70072;52.036;5.558;2024-01-15T04:13:27;16.70;63.10
67147;DHT22;70072;52.036;5.558;2024-01-15T04:15:53;16.70;63.70
67147;DHT22;70072;52.036;5.558;2024-01-15T04:18:21;16.70;63.10
67147;DHT22;70072;52.036;5.558;2024-01-15T04:20:46;16.70;63.10
67147;DHT22;70072;52.036;5.558;2024-01-15T04:23:12;16.70;63.10
67147;DHT22;70072;52.036;5.558;2024-01-15T04:25:39;16.70;63.10
67147;DHT22;70072;52.036;5.558;2024-01-15T04:28:08;16.70;63.00
67147;DHT22;70072;52.036;5.558;2024-01-15T04:30:36;16.70;63.00
67147;DHT22;70072;52.036;5.558;2024-01-15T04:33:02;16.70;63.00
67147;DHT22;70072;52.036;5.558;2024-01-15T04:35:28;16.70;63.00
67147;DHT22;70072;52.036;5.558;2024-01-15T04:37:53;16.70;63.00
67147;DHT22;70072;52.036;5.558;2024-01-15T04:40:19;16.70;63.00
67147;DHT22;70072;52.036;5.558;2024-01-15T04:42:44;16.70;63.00
67147;DHT22;70072;52.036;5.558;2024-01-15T04:45:11;16.70;63.00
67147;DHT22;70072;52.036;5.558;2024-01-15T04:47:37;16.70;63.00
67147;DHT22;70072;52.036;5.558;2024-01-15T04:50:04;16.70;63.00
67147;DHT22;70072;52.036;5.558;2024-01-15T04:52:35;16.70;63.00
67147;DHT22;70072;52.036;5.558;2024-01-15T04:55:01;16.70;63.00
67147;DHT22;70072;52.036;5.558;2024-01-15T04:57:26;16.70;63.00
67147;DHT22;70072;52.036;5.558;2024-01-15T04:59:54;16.70;63.00
67147;DHT22;70072;52.036;5.558;2024-01-15T05:02:22;16.70;63.00
67147;DHT22;70072;52.036;5.558;2024-01-15T05:04:50;16.70;63.00
67147;DHT22;70072;52.036;5.558;2024-01-15T05:07:15;16.70;63.00
67147;DHT22;70072;52.036;5.558;2024-01-15T05:09:45;16.70;62.90
67147;DHT22;70072;52.036;5.558;2024-01-15T05:12:11;16.70;63.00
67147;DHT22;70072;52.036;5.558;2024-01-15T05:14:37;16.70;62.90
67147;DHT22;70072;52.036;5.558;2024-01-15T05:17:02;16.70;63.00
67147;DHT22;70072;52.036;5.558;2024-01-15T05:19:28;16.70;62.90
67147;DHT22;70072;52.036;5.558;2024-01-15T05:21:54;16.70;63.00
67147;DHT22;70072;52.036;5.558;2024-01-15T05:24:19;16.70;62.90
67147;DHT22;70072;52.036;5.558;2024-01-15T05:26:47;16.70;62.90
67147;DHT22;70072;52.036;5.558;2024-01-15T05:29:13;16.70;63.00
67147;DHT22;70072;52.036;5.558;2024-01-15T05:31:39;16.60;62.80
67147;DHT22;70072;52.036;5.558;2024-01-15T05:34:04;16.60;62.90
67147;DHT22;70072;52.036;5.558;2024-01-15T05:36:30;16.70;62.90
67147;DHT22;70072;52.036;5.558;2024-01-15T05:38:55;16.70;63.50
67147;DHT22;70072;52.036;5.558;2024-01-15T05:41:21;16.60;62.80
67147;DHT22;70072;52.036;5.558;2024-01-15T05:43:47;16.60;63.50
67147;DHT22;70072;52.036;5.558;2024-01-15T05:46:15;16.70;62.90
67147;DHT22;70072;52.036;5.558;2024-01-15T05:48:41;16.60;62.80
67147;DHT22;70072;52.036;5.558;2024-01-15T05:51:07;16.70;62.90
67147;DHT22;70072;52.036;5.558;2024-01-15T05:53:33;16.60;62.80
67147;DHT22;70072;52.036;5.558;2024-01-15T05:55:58;16.70;62.90
67147;DHT22;70072;52.036;5.558;2024-01-15T05:58:26;16.60;62.80
67147;DHT22;70072;52.036;5.558;2024-01-15T06:00:52;16.70;62.80
67147;DHT22;70072;52.036;5.558;2024-01-15T06:03:18;16.60;62.80
67147;DHT22;70072;52.036;5.558;2024-01-15T06:05:48;16.60;62.80
67147;DHT22;70072;52.036;5.558;2024-01-15T06:08:13;16.60;62.80
67147;DHT22;70072;52.036;5.558;2024-01-15T06:10:40;16.60;62.70
67147;DHT22;70072;52.036;5.558;2024-01-15T06:13:05;16.60;62.70
67147;DHT22;70072;52.036;5.558;2024-01-15T06:15:31;16.60;62.70
67147;DHT22;70072;52.036;5.558;2024-01-15T06:17:57;16.60;62.70
67147;DHT22;70072;52.036;5.558;2024-01-15T06:20:24;16.60;62.60
67147;DHT22;70072;52.036;5.558;2024-01-15T06:22:50;16.60;62.70
67147;DHT22;70072;52.036;5.558;2024-01-15T06:25:18;16.60;62.60
67147;DHT22;70072;52.036;5.558;2024-01-15T06:27:44;16.60;62.60
67147;DHT22;70072;52.036;5.558;2024-01-15T06:30:10;16.60;62.60
67147;DHT22;70072;52.036;5.558;2024-01-15T06:32:38;16.60;62.60
67147;DHT22;70072;52.036;5.558;2024-01-15T06:35:04;16.60;62.60
67147;DHT22;70072;52.036;5.558;2024-01-15T06:37:32;16.60;62.60
67147;DHT22;70072;52.036;5.558;2024-01-15T22:11:21;16.40;61.70
67147;DHT22;70072;52.036;5.558;2024-01-15T22:13:47;16.50;61.70
67147;DHT22;70072;52.036;5.558;2024-01-15T22:16:15;16.50;61.70
67147;DHT22;70072;52.036;5.558;2024-01-15T22:18:42;16.50;61.70
67147;DHT22;70072;52.036;5.558;2024-01-15T22:21:44;16.50;61.70
67147;DHT22;70072;52.036;5.558;2024-01-15T22:24:12;16.40;61.70
67147;DHT22;70072;52.036;5.558;2024-01-15T22:26:40;16.40;61.60
67147;DHT22;70072;52.036;5.558;2024-01-15T22:29:07;16.50;61.70
67147;DHT22;70072;52.036;5.558;2024-01-15T22:31:35;16.40;61.60
67147;DHT22;70072;52.036;5.558;2024-01-15T22:34:01;16.50;61.70
67147;DHT22;70072;52.036;5.558;2024-01-15T22:36:26;16.40;61.60
67147;DHT22;70072;52.036;5.558;2024-01-15T22:38:52;16.40;61.60
67147;DHT22;70072;52.036;5.558;2024-01-15T22:41:18;16.50;61.70
67147;DHT22;70072;52.036;5.558;2024-01-15T22:43:44;16.50;61.70
67147;DHT22;70072;52.036;5.558;2024-01-15T22:46:11;16.50;61.70
67147;DHT22;70072;52.036;5.558;2024-01-15T22:48:37;16.40;61.60
67147;DHT22;70072;52.036;5.558;2024-01-15T22:51:08;16.40;61.60
67147;DHT22;70072;52.036;5.558;2024-01-15T22:53:33;16.40;61.60
67147;DHT22;70072;52.036;5.558;2024-01-15T22:56:02;16.50;61.70
67147;DHT22;70072;52.036;5.558;2024-01-15T22:58:28;16.50;61.70
67147;DHT22;70072;52.036;5.558;2024-01-15T23:00:53;16.40;61.70
67147;DHT22;70072;52.036;5.558;2024-01-15T23:03:19;16.40;61.60
67147;DHT22;70072;52.036;5.558;2024-01-15T23:05:45;16.50;61.70
67147;DHT22;70072;52.036;5.558;2024-01-15T23:08:13;16.40;61.60
67147;DHT22;70072;52.036;5.558;2024-01-15T23:10:38;16.50;61.70
67147;DHT22;70072;52.036;5.558;2024-01-15T23:13:08;16.50;61.70
67147;DHT22;70072;52.036;5.558;2024-01-15T23:15:37;16.50;61.70
67147;DHT22;70072;52.036;5.558;2024-01-15T23:18:05;16.50;61.70
67147;DHT22;70072;52.036;5.558;2024-01-15T23:20:32;16.50;61.70
67147;DHT22;70072;52.036;5.558;2024-01-15T23:23:00;16.50;61.70
67147;DHT22;70072;52.036;5.558;2024-01-15T23:25:26;16.50;61.70
67147;DHT22;70072;52.036;5.558;2024-01-15T23:27:52;16.50;61.70
67147;DHT22;70072;52.036;5.558;2024-01-15T23:30:17;16.50;61.70
67147;DHT22;70072;52.036;5.558;2024-01-15T23:32:47;16.40;61.60
67147;DHT22;70072;52.036;5.558;2024-01-15T23:35:15;16.50;61.70
67147;DHT22;70072;52.036;5.558;2024-01-15T23:37:45;16.40;61.60
67147;DHT22;70072;52.036;5.558;2024-01-15T23:40:13;16.40;61.60
67147;DHT22;70072;52.036;5.558;2024-01-15T23:42:39;16.50;61.70
67147;DHT22;70072;52.036;5.558;2024-01-15T23:45:05;16.40;61.60
67147;DHT22;70072;52.036;5.558;2024-01-15T23:47:31;16.50;61.70
67147;DHT22;70072;52.036;5.558;2024-01-15T23:49:57;16.40;61.70
67147;DHT22;70072;52.036;5.558;2024-01-15T23:52:22;16.40;61.60
67147;DHT22;70072;52.036;5.558;2024-01-15T23:54:50;16.40;61.60
67147;DHT22;70072;52.036;5.558;2024-01-15T23:57:16;16.40;61.70
67147;DHT22;70072;52.036;5.558;2024-01-15T23:59:46;16.40;61.70
